createdAt,value
2023-05-22T06:17:00.763Z,17.29
2023-05-22T06:22:02.800Z,17.41
2023-05-22T06:27:05.548Z,17.42
2023-05-22T06:32:10.251Z,17.45
2023-05-22T06:37:12.833Z,17.48
2023-05-22T06:42:15.069Z,17.61
2023-05-22T06:47:18.476Z,17.74
2023-05-22T06:52:20.624Z,17.62
2023-05-22T06:57:24.047Z,17.33
2023-05-22T07:02:27.488Z,16.94
2023-05-22T07:07:29.634Z,17.15
2023-05-22T07:12:31.628Z,17.09
2023-05-22T07:17:35.065Z,17.08
2023-05-22T07:22:37.161Z,17.29
2023-05-22T07:27:39.677Z,17.41
2023-05-22T07:32:43.891Z,17.70
2023-05-22T07:37:46.076Z,18.08
2023-05-22T07:42:47.943Z,18.22
2023-05-22T07:47:52.820Z,18.50
2023-05-22T07:52:56.553Z,18.64
2023-05-22T07:57:58.610Z,19.04
2023-05-22T08:03:01.951Z,18.67
2023-05-22T08:08:04.789Z,19.18
2023-05-22T08:13:06.884Z,19.18
2023-05-22T08:18:11.440Z,19.88
2023-05-22T08:23:13.559Z,19.96
2023-05-22T08:28:15.454Z,19.43
2023-05-22T08:33:19.703Z,20.09
2023-05-22T08:38:21.958Z,19.89
2023-05-22T08:43:24.441Z,19.77
2023-05-22T08:48:30.912Z,20.13
2023-05-22T08:53:35.815Z,20.23
2023-05-22T08:58:38.340Z,20.05
2023-05-22T09:03:43.394Z,20.60
2023-05-22T09:08:45.958Z,20.48
2023-05-22T09:13:49.075Z,20.73
2023-05-22T09:18:52.972Z,20.29
2023-05-22T09:23:59.103Z,20.32
2023-05-22T09:29:01.722Z,20.27
2023-05-22T09:34:08.083Z,20.81
2023-05-22T09:39:10.840Z,20.92
2023-05-22T09:44:14.082Z,21.09
2023-05-22T09:49:17.894Z,20.65
2023-05-22T09:54:27.815Z,-145.47
2023-05-22T09:59:31.418Z,21.07
2023-05-22T10:04:34.893Z,21.21
2023-05-22T10:09:40.701Z,20.76
2023-05-22T10:14:43.600Z,20.88
2023-05-22T10:19:47.206Z,21.05
2023-05-22T10:24:50.828Z,21.26
2023-05-22T10:29:56.747Z,21.27
2023-05-22T10:35:08.786Z,20.99
2023-05-22T10:40:13.454Z,21.30
2023-05-22T10:45:16.607Z,21.62
2023-05-22T10:50:20.297Z,21.70
2023-05-22T10:55:22.850Z,21.50
2023-05-22T11:00:24.973Z,21.02
2023-05-22T11:05:34.789Z,21.25
2023-05-22T11:10:53.059Z,20.95
2023-05-22T11:15:56.500Z,21.27
2023-05-22T11:21:00.928Z,21.50
2023-05-22T11:26:20.225Z,21.12
2023-05-22T11:31:23.308Z,21.65
2023-05-22T11:36:27.740Z,21.73
2023-05-22T11:41:32.463Z,21.25
2023-05-22T11:46:35.782Z,21.53
2023-05-22T11:51:40.529Z,21.66
2023-05-22T11:56:42.641Z,21.52
2023-05-22T12:01:44.680Z,21.47
2023-05-22T12:06:48.348Z,21.77
2023-05-22T12:11:50.491Z,21.90
2023-05-22T12:16:53.295Z,21.89
2023-05-22T12:21:57.376Z,21.65
2023-05-22T12:26:59.335Z,21.20
2023-05-22T12:32:03.138Z,21.80
2023-05-22T12:37:18.306Z,22.06
2023-05-22T12:42:20.489Z,21.55
2023-05-22T12:47:23.604Z,21.69
2023-05-22T12:52:26.973Z,21.94
2023-05-22T12:57:28.958Z,22.18
2023-05-22T13:02:30.976Z,22.32
2023-05-22T13:07:34.454Z,22.01
2023-05-22T13:12:36.479Z,22.00
2023-05-22T13:17:38.548Z,22.14
2023-05-22T13:22:41.965Z,21.65
2023-05-22T13:27:43.977Z,22.24
2023-05-22T13:32:46.257Z,21.56
2023-05-22T13:37:50.031Z,21.24
2023-05-22T13:42:52.309Z,21.10
2023-05-22T13:47:54.452Z,21.10
2023-05-22T13:52:57.851Z,21.73
2023-05-22T13:57:59.856Z,21.54
2023-05-22T14:03:01.935Z,22.14
2023-05-22T14:08:05.368Z,21.81
2023-05-22T14:13:08.640Z,22.21
2023-05-22T14:18:11.193Z,21.70
2023-05-22T14:23:14.867Z,22.04
2023-05-22T14:28:17.179Z,21.82
2023-05-22T14:33:19.244Z,21.49
2023-05-22T14:38:22.610Z,21.73
2023-05-22T14:43:24.641Z,21.46
2023-05-22T14:48:26.874Z,21.10
2023-05-22T14:53:30.775Z,21.56
2023-05-22T14:58:32.886Z,21.19
2023-05-22T15:03:34.902Z,21.36
2023-05-22T15:08:38.339Z,21.50
2023-05-22T15:13:40.802Z,21.45
2023-05-22T15:18:42.832Z,20.91
2023-05-22T15:23:46.330Z,20.44
2023-05-22T15:28:48.384Z,20.46
2023-05-22T15:33:50.416Z,20.18
2023-05-22T15:38:53.802Z,19.96
2023-05-22T15:43:56.200Z,19.79
2023-05-22T15:48:58.200Z,20.32
2023-05-22T15:54:01.780Z,20.50
2023-05-22T15:59:03.872Z,20.30
2023-05-22T16:04:06.214Z,19.98
2023-05-22T16:09:09.987Z,19.90
2023-05-22T16:14:12.105Z,20.96
2023-05-22T16:19:14.548Z,21.14
2023-05-22T16:24:17.982Z,21.30
2023-05-22T16:29:23.062Z,20.58
2023-05-22T16:34:25.291Z,20.28
2023-05-22T16:39:28.647Z,20.24
2023-05-22T16:44:30.695Z,20.95
2023-05-22T16:49:32.688Z,20.06
2023-05-22T16:54:36.864Z,19.78
2023-05-22T16:59:38.902Z,19.33
2023-05-22T17:04:41.153Z,19.20
2023-05-22T17:09:44.568Z,19.13
2023-05-22T17:14:46.615Z,19.03
2023-05-22T17:19:48.646Z,19.11
2023-05-22T17:24:52.704Z,18.98
2023-05-22T17:29:54.718Z,18.87
2023-05-22T17:34:56.798Z,18.84
2023-05-22T17:40:00.503Z,18.46
2023-05-22T17:45:02.566Z,18.64
2023-05-22T17:50:05.011Z,18.36
2023-05-22T17:55:09.092Z,18.47
2023-05-22T18:00:12.535Z,18.39
2023-05-22T18:05:14.590Z,18.05
2023-05-22T18:10:18.151Z,17.36
2023-05-22T18:15:20.343Z,16.90
2023-05-22T18:20:22.361Z,16.40
2023-05-22T18:25:25.877Z,-145.47
2023-05-22T18:30:28.552Z,-145.47
2023-05-22T18:35:30.904Z,-145.47
2023-05-22T18:40:34.347Z,-145.47
2023-05-22T18:45:37.287Z,-145.47
2023-05-22T18:50:39.591Z,13.92
2023-05-22T18:55:43.974Z,13.63
2023-05-22T19:00:46.356Z,13.42
2023-05-22T19:05:49.430Z,13.21
2023-05-22T19:10:52.916Z,12.93
2023-05-22T19:15:55.316Z,12.78
2023-05-22T19:20:58.372Z,12.63
2023-05-22T19:26:02.003Z,12.47
2023-05-22T19:31:05.088Z,12.31
2023-05-22T19:36:08.155Z,12.12
2023-05-22T19:41:11.586Z,12.01
2023-05-22T19:46:13.596Z,11.94
2023-05-22T19:51:16.069Z,11.81
2023-05-22T19:56:19.570Z,11.76
2023-05-22T20:01:22.202Z,11.76
2023-05-22T20:06:24.386Z,11.69
2023-05-22T20:11:28.622Z,11.53
2023-05-22T20:16:31.072Z,11.41
2023-05-22T20:21:33.940Z,11.39
2023-05-22T20:26:37.416Z,11.39
2023-05-22T20:31:39.666Z,11.39
2023-05-22T20:36:42.679Z,11.39
2023-05-22T20:41:49.652Z,-145.46
2023-05-22T20:46:53.048Z,-145.47
2023-05-22T20:51:55.396Z,-145.47
2023-05-22T20:56:58.758Z,11.39
2023-05-22T21:02:01.318Z,10.85
2023-05-22T21:07:04.882Z,10.85
2023-05-22T21:12:08.688Z,-145.47
2023-05-22T21:17:10.777Z,-145.47
2023-05-22T21:22:12.820Z,-145.47
2023-05-22T21:27:16.205Z,-145.47
2023-05-22T21:32:18.231Z,-145.47
2023-05-22T21:37:20.473Z,-145.47
2023-05-22T21:42:25.954Z,-145.47
2023-05-22T21:47:28.268Z,-145.47
2023-05-22T21:52:30.446Z,-145.47
2023-05-22T21:57:34.309Z,-145.47
2023-05-22T22:02:36.429Z,-145.47
2023-05-22T22:07:38.515Z,-145.47
2023-05-22T22:12:41.878Z,-145.47
2023-05-22T22:17:44.022Z,-145.47
2023-05-22T22:22:46.130Z,-145.47
2023-05-22T22:27:49.545Z,-145.47
2023-05-22T22:32:52.122Z,-145.47
2023-05-22T22:37:54.151Z,-145.47
2023-05-22T22:42:57.490Z,-145.47
2023-05-22T22:48:00.576Z,-145.47
2023-05-22T22:53:02.733Z,-145.47
2023-05-22T22:58:07.799Z,-145.47
2023-05-22T23:03:09.844Z,-145.47
2023-05-22T23:08:11.981Z,-145.47
2023-05-22T23:13:16.111Z,-145.47
2023-05-22T23:18:18.288Z,-145.47
2023-05-22T23:23:20.340Z,-145.47
2023-05-22T23:28:23.714Z,-145.47
2023-05-22T23:33:25.686Z,-145.47
2023-05-22T23:38:27.888Z,-145.47
2023-05-22T23:43:31.218Z,-145.47
2023-05-22T23:48:33.208Z,-145.47
2023-05-22T23:53:35.709Z,-145.47
2023-05-22T23:58:39.082Z,-145.47
